Aviation Digital Data Service (ADDS)

Output produced by TAFs form (2102 UTC 23 August 2016)
found at http://aviationweather.gov/adds/tafs/
 
KROW 231731Z 2318/2418 20008KT P6SM SCT120 
     FM232100 17011G20KT P6SM VCSH BKN090 
     TEMPO 2321/2324 VRB20G30KT -SHRA BKN070 
     FM240200 18012KT P6SM BKN090 
     FM240800 20007KT P6SM SCT080